sensor_id;sensor_type;location;lat;lon;timestamp;P1;durP1;ratioP1;P2;durP2;ratioP2
55067;SDS011;40965;52.368;9.712;2023-11-21T00:01:02;15.80;;;5.53;;
55067;SDS011;40965;52.368;9.712;2023-11-21T00:03:34;21.40;;;6.90;;
55067;SDS011;40965;52.368;9.712;2023-11-21T00:06:01;18.80;;;5.72;;
55067;SDS011;40965;52.368;9.712;2023-11-21T00:08:29;18.00;;;7.68;;
55067;SDS011;40965;52.368;9.712;2023-11-21T00:10:55;13.38;;;6.43;;
55067;SDS011;40965;52.368;9.712;2023-11-21T00:13:25;18.45;;;5.95;;
55067;SDS011;40965;52.368;9.712;2023-11-21T00:15:52;19.13;;;6.70;;
55067;SDS011;40965;52.368;9.712;2023-11-21T00:18:20;14.98;;;5.60;;
55067;SDS011;40965;52.368;9.712;2023-11-21T00:20:47;15.43;;;6.40;;
55067;SDS011;40965;52.368;9.712;2023-11-21T00:23:17;10.80;;;6.25;;
55067;SDS011;40965;52.368;9.712;2023-11-21T00:25:43;12.15;;;7.13;;
55067;SDS011;40965;52.368;9.712;2023-11-21T00:28:10;17.52;;;7.43;;
55067;SDS011;40965;52.368;9.712;2023-11-21T00:30:37;15.80;;;6.88;;
55067;SDS011;40965;52.368;9.712;2023-11-21T00:33:04;14.38;;;6.85;;
55067;SDS011;40965;52.368;9.712;2023-11-21T00:35:30;17.70;;;6.45;;
55067;SDS011;40965;52.368;9.712;2023-11-21T00:38:00;17.05;;;7.85;;
55067;SDS011;40965;52.368;9.712;2023-11-21T00:40:30;19.70;;;6.07;;
55067;SDS011;40965;52.368;9.712;2023-11-21T00:42:58;12.57;;;6.55;;
55067;SDS011;40965;52.368;9.712;2023-11-21T00:45:26;20.38;;;8.07;;
55067;SDS011;40965;52.368;9.712;2023-11-21T00:47:54;24.08;;;9.48;;
55067;SDS011;40965;52.368;9.712;2023-11-21T00:50:22;18.17;;;7.78;;
55067;SDS011;40965;52.368;9.712;2023-11-21T00:52:49;22.17;;;8.35;;
55067;SDS011;40965;52.368;9.712;2023-11-21T00:55:16;14.73;;;8.00;;
55067;SDS011;40965;52.368;9.712;2023-11-21T00:57:43;22.00;;;7.55;;
55067;SDS011;40965;52.368;9.712;2023-11-21T01:00:10;24.23;;;8.98;;
55067;SDS011;40965;52.368;9.712;2023-11-21T01:02:39;11.23;;;7.22;;
55067;SDS011;40965;52.368;9.712;2023-11-21T01:05:06;25.60;;;9.45;;
55067;SDS011;40965;52.368;9.712;2023-11-21T01:07:33;18.50;;;8.38;;
55067;SDS011;40965;52.368;9.712;2023-11-21T01:10:04;16.65;;;8.00;;
55067;SDS011;40965;52.368;9.712;2023-11-21T01:12:32;18.23;;;8.70;;
55067;SDS011;40965;52.368;9.712;2023-11-21T01:15:05;20.10;;;10.23;;
55067;SDS011;40965;52.368;9.712;2023-11-21T01:17:40;22.02;;;8.98;;
55067;SDS011;40965;52.368;9.712;2023-11-21T01:20:10;28.35;;;10.07;;
55067;SDS011;40965;52.368;9.712;2023-11-21T01:22:38;25.48;;;8.93;;
55067;SDS011;40965;52.368;9.712;2023-11-21T01:25:05;23.08;;;10.13;;
55067;SDS011;40965;52.368;9.712;2023-11-21T01:27:36;20.10;;;9.57;;
55067;SDS011;40965;52.368;9.712;2023-11-21T01:30:06;22.02;;;9.57;;
55067;SDS011;40965;52.368;9.712;2023-11-21T01:32:35;24.58;;;10.80;;
55067;SDS011;40965;52.368;9.712;2023-11-21T01:35:03;28.83;;;9.02;;
55067;SDS011;40965;52.368;9.712;2023-11-21T01:37:32;19.58;;;10.27;;
55067;SDS011;40965;52.368;9.712;2023-11-21T01:39:59;26.58;;;8.85;;
55067;SDS011;40965;52.368;9.712;2023-11-21T01:42:30;24.95;;;9.25;;
55067;SDS011;40965;52.368;9.712;2023-11-21T01:44:59;21.67;;;10.00;;
55067;SDS011;40965;52.368;9.712;2023-11-21T01:47:30;24.58;;;10.65;;
55067;SDS011;40965;52.368;9.712;2023-11-21T01:50:02;19.40;;;10.93;;
55067;SDS011;40965;52.368;9.712;2023-11-21T01:52:30;25.13;;;11.55;;
55067;SDS011;40965;52.368;9.712;2023-11-21T01:54:57;22.48;;;10.15;;
55067;SDS011;40965;52.368;9.712;2023-11-21T01:57:26;22.65;;;10.27;;
55067;SDS011;40965;52.368;9.712;2023-11-21T01:59:54;27.30;;;11.23;;
55067;SDS011;40965;52.368;9.712;2023-11-21T02:02:24;29.10;;;13.10;;
55067;SDS011;40965;52.368;9.712;2023-11-21T02:04:51;26.20;;;10.98;;
55067;SDS011;40965;52.368;9.712;2023-11-21T02:07:20;20.25;;;10.60;;
55067;SDS011;40965;52.368;9.712;2023-11-21T02:09:48;25.58;;;11.07;;
55067;SDS011;40965;52.368;9.712;2023-11-21T02:12:16;24.65;;;9.82;;
55067;SDS011;40965;52.368;9.712;2023-11-21T02:14:43;20.42;;;9.48;;
55067;SDS011;40965;52.368;9.712;2023-11-21T02:17:10;24.90;;;12.45;;
55067;SDS011;40965;52.368;9.712;2023-11-21T02:19:38;25.83;;;11.05;;
55067;SDS011;40965;52.368;9.712;2023-11-21T02:22:05;35.13;;;12.35;;
55067;SDS011;40965;52.368;9.712;2023-11-21T02:24:33;27.85;;;12.43;;
55067;SDS011;40965;52.368;9.712;2023-11-21T02:27:00;25.35;;;12.48;;
55067;SDS011;40965;52.368;9.712;2023-11-21T02:29:27;29.40;;;12.73;;
55067;SDS011;40965;52.368;9.712;2023-11-21T02:31:56;23.08;;;11.95;;
55067;SDS011;40965;52.368;9.712;2023-11-21T02:34:26;27.13;;;11.32;;
55067;SDS011;40965;52.368;9.712;2023-11-21T02:36:54;22.65;;;11.52;;
55067;SDS011;40965;52.368;9.712;2023-11-21T02:39:22;27.65;;;14.80;;
55067;SDS011;40965;52.368;9.712;2023-11-21T02:41:51;25.65;;;12.80;;
55067;SDS011;40965;52.368;9.712;2023-11-21T02:44:18;27.48;;;12.07;;
55067;SDS011;40965;52.368;9.712;2023-11-21T02:46:45;32.67;;;12.23;;
55067;SDS011;40965;52.368;9.712;2023-11-21T02:49:12;29.50;;;12.65;;
55067;SDS011;40965;52.368;9.712;2023-11-21T02:51:38;28.20;;;13.50;;
55067;SDS011;40965;52.368;9.712;2023-11-21T02:54:05;49.10;;;15.63;;
55067;SDS011;40965;52.368;9.712;2023-11-21T02:56:33;39.35;;;14.00;;
55067;SDS011;40965;52.368;9.712;2023-11-21T02:59:00;30.00;;;12.20;;
55067;SDS011;40965;52.368;9.712;2023-11-21T03:01:27;28.63;;;14.05;;
55067;SDS011;40965;52.368;9.712;2023-11-21T03:03:54;30.55;;;13.57;;
55067;SDS011;40965;52.368;9.712;2023-11-21T03:06:21;27.25;;;13.68;;
55067;SDS011;40965;52.368;9.712;2023-11-21T03:08:49;25.67;;;11.73;;
55067;SDS011;40965;52.368;9.712;2023-11-21T03:11:16;37.20;;;13.40;;
55067;SDS011;40965;52.368;9.712;2023-11-21T03:13:43;26.10;;;12.90;;
55067;SDS011;40965;52.368;9.712;2023-11-21T03:16:10;27.95;;;12.40;;
55067;SDS011;40965;52.368;9.712;2023-11-21T03:18:38;28.05;;;12.68;;
55067;SDS011;40965;52.368;9.712;2023-11-21T03:21:05;29.38;;;13.02;;
55067;SDS011;40965;52.368;9.712;2023-11-21T03:23:36;33.78;;;14.40;;
55067;SDS011;40965;52.368;9.712;2023-11-21T03:26:06;29.73;;;13.90;;
55067;SDS011;40965;52.368;9.712;2023-11-21T03:28:33;34.28;;;12.38;;
55067;SDS011;40965;52.368;9.712;2023-11-21T03:31:00;23.67;;;13.32;;
55067;SDS011;40965;52.368;9.712;2023-11-21T03:33:27;23.30;;;11.77;;
55067;SDS011;40965;52.368;9.712;2023-11-21T03:35:54;32.13;;;13.50;;
55067;SDS011;40965;52.368;9.712;2023-11-21T03:38:21;31.77;;;14.32;;
55067;SDS011;40965;52.368;9.712;2023-11-21T03:40:48;29.83;;;13.27;;
55067;SDS011;40965;52.368;9.712;2023-11-21T03:43:15;26.52;;;14.02;;
55067;SDS011;40965;52.368;9.712;2023-11-21T03:45:42;31.50;;;13.88;;
55067;SDS011;40965;52.368;9.712;2023-11-21T03:48:12;34.63;;;15.25;;
55067;SDS011;40965;52.368;9.712;2023-11-21T03:50:42;26.85;;;14.65;;
55067;SDS011;40965;52.368;9.712;2023-11-21T03:53:12;31.77;;;13.05;;
55067;SDS011;40965;52.368;9.712;2023-11-21T03:55:40;32.13;;;14.43;;
55067;SDS011;40965;52.368;9.712;2023-11-21T03:58:07;36.80;;;15.95;;
55067;SDS011;40965;52.368;9.712;2023-11-21T04:00:33;51.53;;;17.50;;
55067;SDS011;40965;52.368;9.712;2023-11-21T04:03:00;37.70;;;15.07;;
55067;SDS011;40965;52.368;9.712;2023-11-21T04:05:27;36.53;;;16.58;;
55067;SDS011;40965;52.368;9.712;2023-11-21T04:07:54;31.50;;;16.88;;
55067;SDS011;40965;52.368;9.712;2023-11-21T04:10:24;43.80;;;17.05;;
55067;SDS011;40965;52.368;9.712;2023-11-21T04:12:50;40.50;;;15.75;;
55067;SDS011;40965;52.368;9.712;2023-11-21T04:15:19;40.20;;;17.17;;
55067;SDS011;40965;52.368;9.712;2023-11-21T04:17:45;40.35;;;17.23;;
55067;SDS011;40965;52.368;9.712;2023-11-21T04:20:15;34.85;;;16.70;;
55067;SDS011;40965;52.368;9.712;2023-11-21T04:22:45;42.70;;;19.50;;
55067;SDS011;40965;52.368;9.712;2023-11-21T04:25:16;40.20;;;18.83;;
55067;SDS011;40965;52.368;9.712;2023-11-21T04:27:45;39.55;;;18.13;;
55067;SDS011;40965;52.368;9.712;2023-11-21T04:30:13;39.95;;;19.58;;
55067;SDS011;40965;52.368;9.712;2023-11-21T04:32:40;39.47;;;18.50;;
55067;SDS011;40965;52.368;9.712;2023-11-21T04:35:08;47.13;;;20.02;;
55067;SDS011;40965;52.368;9.712;2023-11-21T04:37:35;42.58;;;18.35;;
55067;SDS011;40965;52.368;9.712;2023-11-21T04:40:02;40.92;;;18.73;;
55067;SDS011;40965;52.368;9.712;2023-11-21T04:42:32;41.75;;;18.40;;
55067;SDS011;40965;52.368;9.712;2023-11-21T04:45:01;41.03;;;18.95;;
55067;SDS011;40965;52.368;9.712;2023-11-21T04:47:30;51.88;;;18.27;;
55067;SDS011;40965;52.368;9.712;2023-11-21T04:49:57;43.03;;;20.77;;
55067;SDS011;40965;52.368;9.712;2023-11-21T04:52:24;42.85;;;18.17;;
55067;SDS011;40965;52.368;9.712;2023-11-21T04:54:50;39.92;;;17.92;;
55067;SDS011;40965;52.368;9.712;2023-11-21T04:57:19;39.65;;;17.35;;
55067;SDS011;40965;52.368;9.712;2023-11-21T04:59:48;41.22;;;18.27;;
55067;SDS011;40965;52.368;9.712;2023-11-21T05:02:15;38.13;;;18.52;;
55067;SDS011;40965;52.368;9.712;2023-11-21T05:04:44;40.70;;;19.08;;
55067;SDS011;40965;52.368;9.712;2023-11-21T05:07:11;37.85;;;17.00;;
55067;SDS011;40965;52.368;9.712;2023-11-21T05:09:43;39.92;;;18.48;;
55067;SDS011;40965;52.368;9.712;2023-11-21T05:12:13;36.35;;;17.25;;
55067;SDS011;40965;52.368;9.712;2023-11-21T05:14:40;30.50;;;14.73;;
55067;SDS011;40965;52.368;9.712;2023-11-21T05:17:08;33.42;;;16.52;;
55067;SDS011;40965;52.368;9.712;2023-11-21T05:19:38;32.85;;;16.02;;
55067;SDS011;40965;52.368;9.712;2023-11-21T05:22:05;34.00;;;14.73;;
55067;SDS011;40965;52.368;9.712;2023-11-21T05:24:34;27.98;;;13.88;;
55067;SDS011;40965;52.368;9.712;2023-11-21T05:27:01;29.15;;;14.40;;
55067;SDS011;40965;52.368;9.712;2023-11-21T05:29:27;26.60;;;13.60;;
55067;SDS011;40965;52.368;9.712;2023-11-21T05:31:54;27.13;;;13.05;;
55067;SDS011;40965;52.368;9.712;2023-11-21T05:34:21;29.70;;;13.82;;
55067;SDS011;40965;52.368;9.712;2023-11-21T05:36:49;33.92;;;14.77;;
55067;SDS011;40965;52.368;9.712;2023-11-21T05:39:16;29.38;;;14.68;;
55067;SDS011;40965;52.368;9.712;2023-11-21T05:41:44;28.95;;;13.77;;
55067;SDS011;40965;52.368;9.712;2023-11-21T05:44:12;26.83;;;12.70;;
55067;SDS011;40965;52.368;9.712;2023-11-21T05:46:40;28.27;;;13.45;;
55067;SDS011;40965;52.368;9.712;2023-11-21T05:49:08;27.13;;;13.32;;
55067;SDS011;40965;52.368;9.712;2023-11-21T05:51:38;24.73;;;11.80;;
55067;SDS011;40965;52.368;9.712;2023-11-21T05:54:08;22.50;;;10.85;;
55067;SDS011;40965;52.368;9.712;2023-11-21T05:56:40;18.52;;;10.63;;
55067;SDS011;40965;52.368;9.712;2023-11-21T05:59:11;27.70;;;12.52;;
55067;SDS011;40965;52.368;9.712;2023-11-21T06:01:40;24.70;;;10.55;;
55067;SDS011;40965;52.368;9.712;2023-11-21T06:04:07;21.38;;;10.38;;
55067;SDS011;40965;52.368;9.712;2023-11-21T06:06:34;22.85;;;10.00;;
55067;SDS011;40965;52.368;9.712;2023-11-21T06:09:02;18.52;;;9.30;;
55067;SDS011;40965;52.368;9.712;2023-11-21T06:11:30;16.77;;;9.00;;
55067;SDS011;40965;52.368;9.712;2023-11-21T06:13:57;21.95;;;11.20;;
55067;SDS011;40965;52.368;9.712;2023-11-21T06:16:24;19.90;;;9.07;;
55067;SDS011;40965;52.368;9.712;2023-11-21T06:18:51;18.83;;;8.77;;
55067;SDS011;40965;52.368;9.712;2023-11-21T06:21:17;16.13;;;8.63;;
55067;SDS011;40965;52.368;9.712;2023-11-21T06:23:44;24.92;;;10.32;;
55067;SDS011;40965;52.368;9.712;2023-11-21T06:26:11;19.45;;;9.45;;
55067;SDS011;40965;52.368;9.712;2023-11-21T06:28:40;17.65;;;8.90;;
55067;SDS011;40965;52.368;9.712;2023-11-21T06:31:07;17.85;;;9.85;;
55067;SDS011;40965;52.368;9.712;2023-11-21T06:33:35;13.20;;;8.50;;
55067;SDS011;40965;52.368;9.712;2023-11-21T06:36:04;17.98;;;8.93;;
55067;SDS011;40965;52.368;9.712;2023-11-21T06:38:32;19.35;;;9.73;;
55067;SDS011;40965;52.368;9.712;2023-11-21T06:40:59;20.40;;;9.77;;
55067;SDS011;40965;52.368;9.712;2023-11-21T06:43:27;16.27;;;8.82;;
55067;SDS011;40965;52.368;9.712;2023-11-21T06:45:56;17.23;;;9.80;;
55067;SDS011;40965;52.368;9.712;2023-11-21T06:48:23;12.52;;;6.40;;
55067;SDS011;40965;52.368;9.712;2023-11-21T06:50:52;12.15;;;6.40;;
55067;SDS011;40965;52.368;9.712;2023-11-21T06:53:22;10.13;;;6.18;;
55067;SDS011;40965;52.368;9.712;2023-11-21T06:55:52;9.40;;;4.70;;
55067;SDS011;40965;52.368;9.712;2023-11-21T06:58:20;6.15;;;4.88;;
55067;SDS011;40965;52.368;9.712;2023-11-21T07:00:46;11.95;;;5.10;;
55067;SDS011;40965;52.368;9.712;2023-11-21T07:03:15;7.53;;;5.75;;
55067;SDS011;40965;52.368;9.712;2023-11-21T07:05:44;8.43;;;5.05;;
55067;SDS011;40965;52.368;9.712;2023-11-21T07:08:11;7.28;;;4.97;;
55067;SDS011;40965;52.368;9.712;2023-11-21T07:10:38;9.60;;;5.18;;
55067;SDS011;40965;52.368;9.712;2023-11-21T07:13:05;8.98;;;6.30;;
55067;SDS011;40965;52.368;9.712;2023-11-21T07:15:37;6.60;;;5.03;;
55067;SDS011;40965;52.368;9.712;2023-11-21T07:18:04;9.48;;;5.32;;
55067;SDS011;40965;52.368;9.712;2023-11-21T07:20:33;9.52;;;4.70;;
55067;SDS011;40965;52.368;9.712;2023-11-21T07:22:59;8.23;;;3.72;;
55067;SDS011;40965;52.368;9.712;2023-11-21T07:25:26;5.00;;;3.25;;
55067;SDS011;40965;52.368;9.712;2023-11-21T07:27:53;5.35;;;3.40;;
55067;SDS011;40965;52.368;9.712;2023-11-21T07:30:21;7.80;;;4.88;;
55067;SDS011;40965;52.368;9.712;2023-11-21T07:32:53;5.53;;;4.10;;
55067;SDS011;40965;52.368;9.712;2023-11-21T07:35:23;6.20;;;3.92;;
55067;SDS011;40965;52.368;9.712;2023-11-21T07:37:54;6.00;;;4.57;;
55067;SDS011;40965;52.368;9.712;2023-11-21T07:40:20;4.22;;;3.53;;
55067;SDS011;40965;52.368;9.712;2023-11-21T07:42:47;6.05;;;3.53;;
55067;SDS011;40965;52.368;9.712;2023-11-21T07:45:19;9.57;;;5.05;;
55067;SDS011;40965;52.368;9.712;2023-11-21T07:47:47;6.47;;;4.28;;
55067;SDS011;40965;52.368;9.712;2023-11-21T07:50:13;7.45;;;4.18;;
55067;SDS011;40965;52.368;9.712;2023-11-21T07:52:40;7.53;;;4.55;;
55067;SDS011;40965;52.368;9.712;2023-11-21T07:55:07;7.63;;;5.28;;
55067;SDS011;40965;52.368;9.712;2023-11-21T07:57:34;6.45;;;4.88;;
55067;SDS011;40965;52.368;9.712;2023-11-21T08:00:01;5.55;;;4.43;;
55067;SDS011;40965;52.368;9.712;2023-11-21T08:02:31;7.22;;;4.47;;
55067;SDS011;40965;52.368;9.712;2023-11-21T08:04:59;9.00;;;4.85;;
55067;SDS011;40965;52.368;9.712;2023-11-21T08:07:26;8.98;;;5.07;;
55067;SDS011;40965;52.368;9.712;2023-11-21T08:09:53;8.98;;;5.38;;
55067;SDS011;40965;52.368;9.712;2023-11-21T08:12:19;7.50;;;5.75;;
55067;SDS011;40965;52.368;9.712;2023-11-21T08:14:49;6.78;;;5.45;;
55067;SDS011;40965;52.368;9.712;2023-11-21T08:17:15;13.63;;;7.18;;
55067;SDS011;40965;52.368;9.712;2023-11-21T08:19:44;10.13;;;5.97;;
55067;SDS011;40965;52.368;9.712;2023-11-21T08:22:15;9.55;;;7.07;;
55067;SDS011;40965;52.368;9.712;2023-11-21T08:24:43;8.77;;;6.38;;
55067;SDS011;40965;52.368;9.712;2023-11-21T08:27:12;12.20;;;7.07;;
55067;SDS011;40965;52.368;9.712;2023-11-21T08:29:41;10.45;;;6.55;;
55067;SDS011;40965;52.368;9.712;2023-11-21T08:32:09;13.13;;;7.22;;
55067;SDS011;40965;52.368;9.712;2023-11-21T08:34:36;11.80;;;7.53;;
55067;SDS011;40965;52.368;9.712;2023-11-21T08:37:05;12.98;;;8.18;;
55067;SDS011;40965;52.368;9.712;2023-11-21T08:39:31;13.85;;;8.07;;
55067;SDS011;40965;52.368;9.712;2023-11-21T08:41:58;13.13;;;8.05;;
55067;SDS011;40965;52.368;9.712;2023-11-21T08:44:25;11.30;;;7.80;;
55067;SDS011;40965;52.368;9.712;2023-11-21T08:46:55;10.85;;;7.03;;
55067;SDS011;40965;52.368;9.712;2023-11-21T08:49:21;14.20;;;8.18;;
55067;SDS011;40965;52.368;9.712;2023-11-21T08:51:48;11.43;;;8.27;;
55067;SDS011;40965;52.368;9.712;2023-11-21T08:54:15;13.73;;;7.85;;
55067;SDS011;40965;52.368;9.712;2023-11-21T08:56:43;14.55;;;8.85;;
55067;SDS011;40965;52.368;9.712;2023-11-21T08:59:09;11.57;;;7.40;;
55067;SDS011;40965;52.368;9.712;2023-11-21T09:01:38;10.68;;;6.88;;
55067;SDS011;40965;52.368;9.712;2023-11-21T09:04:07;11.95;;;8.25;;
55067;SDS011;40965;52.368;9.712;2023-11-21T09:06:35;12.00;;;7.63;;
55067;SDS011;40965;52.368;9.712;2023-11-21T09:09:01;12.77;;;8.77;;
55067;SDS011;40965;52.368;9.712;2023-11-21T09:11:30;11.00;;;8.00;;
55067;SDS011;40965;52.368;9.712;2023-11-21T09:13:59;10.93;;;7.20;;
55067;SDS011;40965;52.368;9.712;2023-11-21T09:16:26;9.45;;;6.65;;
55067;SDS011;40965;52.368;9.712;2023-11-21T09:18:53;10.60;;;6.95;;
55067;SDS011;40965;52.368;9.712;2023-11-21T09:21:23;10.43;;;7.55;;
55067;SDS011;40965;52.368;9.712;2023-11-21T09:23:50;11.65;;;6.40;;
55067;SDS011;40965;52.368;9.712;2023-11-21T09:26:17;9.88;;;7.13;;
55067;SDS011;40965;52.368;9.712;2023-11-21T09:28:44;10.63;;;6.60;;
55067;SDS011;40965;52.368;9.712;2023-11-21T09:31:13;11.57;;;6.85;;
55067;SDS011;40965;52.368;9.712;2023-11-21T09:33:42;13.40;;;6.57;;
55067;SDS011;40965;52.368;9.712;2023-11-21T09:36:12;11.20;;;7.28;;
55067;SDS011;40965;52.368;9.712;2023-11-21T09:38:40;8.95;;;6.03;;
55067;SDS011;40965;52.368;9.712;2023-11-21T09:41:11;8.57;;;6.03;;
55067;SDS011;40965;52.368;9.712;2023-11-21T09:43:47;14.20;;;6.68;;
55067;SDS011;40965;52.368;9.712;2023-11-21T09:46:20;11.25;;;6.05;;
55067;SDS011;40965;52.368;9.712;2023-11-21T09:48:50;9.63;;;6.38;;
55067;SDS011;40965;52.368;9.712;2023-11-21T09:51:19;9.30;;;7.03;;
55067;SDS011;40965;52.368;9.712;2023-11-21T09:53:48;9.93;;;6.55;;
55067;SDS011;40965;52.368;9.712;2023-11-21T09:56:17;8.80;;;6.13;;
55067;SDS011;40965;52.368;9.712;2023-11-21T09:58:52;10.45;;;6.93;;
55067;SDS011;40965;52.368;9.712;2023-11-21T10:01:22;7.95;;;5.70;;
55067;SDS011;40965;52.368;9.712;2023-11-21T10:03:51;9.73;;;6.72;;
55067;SDS011;40965;52.368;9.712;2023-11-21T10:06:18;8.32;;;5.25;;
55067;SDS011;40965;52.368;9.712;2023-11-21T10:08:46;8.75;;;5.40;;
55067;SDS011;40965;52.368;9.712;2023-11-21T10:11:11;8.60;;;5.63;;
55067;SDS011;40965;52.368;9.712;2023-11-21T10:13:40;6.03;;;4.78;;
55067;SDS011;40965;52.368;9.712;2023-11-21T10:16:07;7.93;;;5.43;;
55067;SDS011;40965;52.368;9.712;2023-11-21T10:18:39;8.73;;;5.07;;
55067;SDS011;40965;52.368;9.712;2023-11-21T10:21:07;7.43;;;4.57;;
55067;SDS011;40965;52.368;9.712;2023-11-21T10:23:37;6.97;;;5.10;;
55067;SDS011;40965;52.368;9.712;2023-11-21T10:26:03;8.63;;;5.47;;
55067;SDS011;40965;52.368;9.712;2023-11-21T10:28:41;9.32;;;5.05;;
55067;SDS011;40965;52.368;9.712;2023-11-21T10:31:26;6.35;;;4.65;;
55067;SDS011;40965;52.368;9.712;2023-11-21T10:33:56;7.60;;;4.53;;
55067;SDS011;40965;52.368;9.712;2023-11-21T10:36:43;6.78;;;4.30;;
55067;SDS011;40965;52.368;9.712;2023-11-21T10:39:20;4.72;;;4.30;;
55067;SDS011;40965;52.368;9.712;2023-11-21T10:41:48;6.40;;;5.05;;
55067;SDS011;40965;52.368;9.712;2023-11-21T10:44:19;6.43;;;5.05;;
55067;SDS011;40965;52.368;9.712;2023-11-21T10:46:52;4.53;;;4.13;;
55067;SDS011;40965;52.368;9.712;2023-11-21T10:49:24;7.53;;;5.00;;
55067;SDS011;40965;52.368;9.712;2023-11-21T10:51:55;6.07;;;4.18;;
55067;SDS011;40965;52.368;9.712;2023-11-21T10:54:23;7.32;;;4.70;;
55067;SDS011;40965;52.368;9.712;2023-11-21T10:57:00;11.07;;;6.13;;
55067;SDS011;40965;52.368;9.712;2023-11-21T10:59:32;6.80;;;4.35;;
55067;SDS011;40965;52.368;9.712;2023-11-21T11:01:59;6.80;;;3.78;;
55067;SDS011;40965;52.368;9.712;2023-11-21T11:04:28;6.20;;;4.07;;
55067;SDS011;40965;52.368;9.712;2023-11-21T11:06:58;9.43;;;3.90;;
55067;SDS011;40965;52.368;9.712;2023-11-21T11:09:30;6.28;;;3.85;;
55067;SDS011;40965;52.368;9.712;2023-11-21T11:11:58;5.88;;;3.95;;
55067;SDS011;40965;52.368;9.712;2023-11-21T11:14:26;11.23;;;4.20;;
55067;SDS011;40965;52.368;9.712;2023-11-21T11:16:54;10.45;;;4.82;;
55067;SDS011;40965;52.368;9.712;2023-11-21T11:19:25;5.32;;;3.85;;
55067;SDS011;40965;52.368;9.712;2023-11-21T11:25:16;5.40;;;3.90;;
55067;SDS011;40965;52.368;9.712;2023-11-21T11:35:04;6.68;;;4.30;;
55067;SDS011;40965;52.368;9.712;2023-11-21T11:40:52;4.78;;;4.22;;
55067;SDS011;40965;52.368;9.712;2023-11-21T11:43:32;9.13;;;4.72;;
55067;SDS011;40965;52.368;9.712;2023-11-21T11:46:09;5.45;;;4.22;;
55067;SDS011;40965;52.368;9.712;2023-11-21T11:48:41;5.47;;;3.90;;
55067;SDS011;40965;52.368;9.712;2023-11-21T11:51:14;5.60;;;4.35;;
55067;SDS011;40965;52.368;9.712;2023-11-21T11:53:45;4.30;;;3.92;;
55067;SDS011;40965;52.368;9.712;2023-11-21T11:56:27;6.03;;;4.35;;
55067;SDS011;40965;52.368;9.712;2023-11-21T11:59:04;7.85;;;4.00;;
55067;SDS011;40965;52.368;9.712;2023-11-21T12:01:34;7.47;;;5.15;;
55067;SDS011;40965;52.368;9.712;2023-11-21T12:07:03;4.93;;;4.22;;
55067;SDS011;40965;52.368;9.712;2023-11-21T12:09:33;6.13;;;4.50;;
55067;SDS011;40965;52.368;9.712;2023-11-21T12:12:03;5.18;;;4.13;;
55067;SDS011;40965;52.368;9.712;2023-11-21T12:14:35;4.93;;;3.90;;
55067;SDS011;40965;52.368;9.712;2023-11-21T12:17:03;3.53;;;2.88;;
55067;SDS011;40965;52.368;9.712;2023-11-21T12:19:42;4.68;;;3.35;;
55067;SDS011;40965;52.368;9.712;2023-11-21T12:22:09;3.83;;;3.03;;
55067;SDS011;40965;52.368;9.712;2023-11-21T12:24:36;3.58;;;3.20;;
55067;SDS011;40965;52.368;9.712;2023-11-21T12:27:02;5.00;;;3.60;;
55067;SDS011;40965;52.368;9.712;2023-11-21T12:29:29;3.78;;;3.40;;
55067;SDS011;40965;52.368;9.712;2023-11-21T12:31:58;4.65;;;3.30;;
55067;SDS011;40965;52.368;9.712;2023-11-21T12:34:25;3.47;;;3.00;;
55067;SDS011;40965;52.368;9.712;2023-11-21T12:36:52;3.78;;;3.47;;
55067;SDS011;40965;52.368;9.712;2023-11-21T12:39:19;6.03;;;3.72;;
55067;SDS011;40965;52.368;9.712;2023-11-21T12:41:48;4.18;;;3.33;;
55067;SDS011;40965;52.368;9.712;2023-11-21T12:44:14;3.88;;;3.47;;
55067;SDS011;40965;52.368;9.712;2023-11-21T12:46:43;4.00;;;3.63;;
55067;SDS011;40965;52.368;9.712;2023-11-21T12:49:11;6.47;;;3.55;;
55067;SDS011;40965;52.368;9.712;2023-11-21T12:51:42;4.55;;;4.15;;
55067;SDS011;40965;52.368;9.712;2023-11-21T12:54:12;6.53;;;3.65;;
55067;SDS011;40965;52.368;9.712;2023-11-21T12:56:44;4.25;;;3.95;;
55067;SDS011;40965;52.368;9.712;2023-11-21T12:59:13;7.97;;;3.90;;
55067;SDS011;40965;52.368;9.712;2023-11-21T13:01:42;4.43;;;4.00;;
55067;SDS011;40965;52.368;9.712;2023-11-21T13:04:10;6.65;;;4.20;;
55067;SDS011;40965;52.368;9.712;2023-11-21T13:06:37;4.85;;;3.55;;
55067;SDS011;40965;52.368;9.712;2023-11-21T13:09:07;5.50;;;4.38;;
55067;SDS011;40965;52.368;9.712;2023-11-21T13:11:36;5.07;;;3.40;;
55067;SDS011;40965;52.368;9.712;2023-11-21T13:14:05;5.97;;;4.25;;
55067;SDS011;40965;52.368;9.712;2023-11-21T13:16:32;5.15;;;3.40;;
55067;SDS011;40965;52.368;9.712;2023-11-21T13:18:59;5.03;;;3.83;;
55067;SDS011;40965;52.368;9.712;2023-11-21T13:21:26;4.78;;;3.92;;
55067;SDS011;40965;52.368;9.712;2023-11-21T13:23:52;5.70;;;4.05;;
55067;SDS011;40965;52.368;9.712;2023-11-21T13:26:19;6.72;;;3.95;;
55067;SDS011;40965;52.368;9.712;2023-11-21T13:28:48;9.13;;;4.43;;
55067;SDS011;40965;52.368;9.712;2023-11-21T13:31:15;5.45;;;4.55;;
55067;SDS011;40965;52.368;9.712;2023-11-21T13:33:56;5.30;;;3.70;;
55067;SDS011;40965;52.368;9.712;2023-11-21T13:36:32;7.72;;;4.53;;
55067;SDS011;40965;52.368;9.712;2023-11-21T13:39:03;4.68;;;3.85;;
55067;SDS011;40965;52.368;9.712;2023-11-21T13:41:40;5.47;;;3.85;;
55067;SDS011;40965;52.368;9.712;2023-11-21T13:44:07;6.40;;;4.35;;
55067;SDS011;40965;52.368;9.712;2023-11-21T13:46:41;4.22;;;3.83;;
55067;SDS011;40965;52.368;9.712;2023-11-21T13:49:11;4.22;;;3.83;;
55067;SDS011;40965;52.368;9.712;2023-11-21T13:51:40;5.68;;;3.60;;
55067;SDS011;40965;52.368;9.712;2023-11-21T13:54:09;6.05;;;3.85;;
55067;SDS011;40965;52.368;9.712;2023-11-21T13:56:39;6.25;;;4.03;;
55067;SDS011;40965;52.368;9.712;2023-11-21T13:59:09;5.35;;;4.20;;
55067;SDS011;40965;52.368;9.712;2023-11-21T14:01:44;6.57;;;4.65;;
55067;SDS011;40965;52.368;9.712;2023-11-21T14:04:20;6.38;;;3.80;;
55067;SDS011;40965;52.368;9.712;2023-11-21T14:07:00;6.60;;;3.63;;
55067;SDS011;40965;52.368;9.712;2023-11-21T14:09:43;6.32;;;3.90;;
55067;SDS011;40965;52.368;9.712;2023-11-21T14:12:17;3.63;;;2.88;;
55067;SDS011;40965;52.368;9.712;2023-11-21T14:14:46;4.00;;;3.42;;
55067;SDS011;40965;52.368;9.712;2023-11-21T14:17:16;4.47;;;3.05;;
55067;SDS011;40965;52.368;9.712;2023-11-21T14:19:43;3.70;;;3.40;;
55067;SDS011;40965;52.368;9.712;2023-11-21T14:22:10;6.10;;;3.72;;
55067;SDS011;40965;52.368;9.712;2023-11-21T14:24:37;4.82;;;2.47;;
55067;SDS011;40965;52.368;9.712;2023-11-21T14:27:08;4.63;;;2.78;;
55067;SDS011;40965;52.368;9.712;2023-11-21T14:29:40;3.75;;;2.65;;
55067;SDS011;40965;52.368;9.712;2023-11-21T14:32:09;3.97;;;3.00;;
55067;SDS011;40965;52.368;9.712;2023-11-21T14:34:36;5.90;;;3.47;;
55067;SDS011;40965;52.368;9.712;2023-11-21T14:37:03;6.80;;;3.55;;
55067;SDS011;40965;52.368;9.712;2023-11-21T14:39:30;4.43;;;3.60;;
55067;SDS011;40965;52.368;9.712;2023-11-21T14:42:00;4.32;;;3.83;;
55067;SDS011;40965;52.368;9.712;2023-11-21T14:44:28;6.88;;;4.50;;
55067;SDS011;40965;52.368;9.712;2023-11-21T14:47:00;6.95;;;4.38;;
55067;SDS011;40965;52.368;9.712;2023-11-21T14:49:31;5.05;;;3.88;;
55067;SDS011;40965;52.368;9.712;2023-11-21T14:52:13;4.15;;;3.70;;
55067;SDS011;40965;52.368;9.712;2023-11-21T14:54:56;6.10;;;3.95;;
55067;SDS011;40965;52.368;9.712;2023-11-21T14:57:43;4.78;;;3.53;;
55067;SDS011;40965;52.368;9.712;2023-11-21T15:00:18;4.10;;;3.70;;
55067;SDS011;40965;52.368;9.712;2023-11-21T15:03:09;6.47;;;4.47;;